sensor_id;sensor_type;location;lat;lon;timestamp;pressure;altitude;pressure_sealevel;temperature;humidity
53689;BME280;39583;54.682;30.662;2024-02-26T07:12:02;99691.31;;;1.85;100.00
53689;BME280;39583;54.682;30.662;2024-02-26T07:14:30;99694.16;;;1.91;100.00
53689;BME280;39583;54.682;30.662;2024-02-26T07:16:57;99690.88;;;1.97;100.00
53689;BME280;39583;54.682;30.662;2024-02-26T07:19:25;99686.72;;;2.03;100.00
53689;BME280;39583;54.682;30.662;2024-02-26T07:21:53;99691.06;;;2.04;100.00
53689;BME280;39583;54.682;30.662;2024-02-26T07:24:20;99685.41;;;2.07;100.00
53689;BME280;39583;54.682;30.662;2024-02-26T07:26:48;99691.25;;;2.11;100.00
53689;BME280;39583;54.682;30.662;2024-02-26T07:29:16;99700.88;;;2.12;100.00
53689;BME280;39583;54.682;30.662;2024-02-26T07:31:43;99698.06;;;2.13;100.00
53689;BME280;39583;54.682;30.662;2024-02-26T07:34:11;99701.56;;;2.14;100.00
53689;BME280;39583;54.682;30.662;2024-02-26T07:36:39;99696.75;;;2.17;100.00
53689;BME280;39583;54.682;30.662;2024-02-26T07:39:07;99692.94;;;2.20;100.00
53689;BME280;39583;54.682;30.662;2024-02-26T07:41:34;99693.09;;;2.18;100.00
53689;BME280;39583;54.682;30.662;2024-02-26T07:44:02;99701.91;;;2.19;100.00
53689;BME280;39583;54.682;30.662;2024-02-26T07:46:29;99708.03;;;2.19;100.00
53689;BME280;39583;54.682;30.662;2024-02-26T07:48:57;99703.41;;;2.21;100.00
53689;BME280;39583;54.682;30.662;2024-02-26T07:51:25;99700.44;;;2.24;100.00
53689;BME280;39583;54.682;30.662;2024-02-26T07:53:52;99693.31;;;2.33;100.00
53689;BME280;39583;54.682;30.662;2024-02-26T07:56:20;99702.66;;;2.45;100.00
53689;BME280;39583;54.682;30.662;2024-02-26T07:58:50;99702.84;;;2.52;100.00
53689;BME280;39583;54.682;30.662;2024-02-26T08:01:21;99697.53;;;2.52;100.00
53689;BME280;39583;54.682;30.662;2024-02-26T08:03:48;99704.84;;;2.50;100.00
53689;BME280;39583;54.682;30.662;2024-02-26T08:06:16;99707.13;;;2.45;100.00
53689;BME280;39583;54.682;30.662;2024-02-26T08:08:44;99709.47;;;2.40;100.00
53689;BME280;39583;54.682;30.662;2024-02-26T08:11:14;99710.63;;;2.37;100.00
53689;BME280;39583;54.682;30.662;2024-02-26T08:13:42;99706.47;;;2.43;100.00
53689;BME280;39583;54.682;30.662;2024-02-26T08:16:10;99714.44;;;2.43;100.00
53689;BME280;39583;54.682;30.662;2024-02-26T08:18:38;99705.16;;;2.47;100.00
53689;BME280;39583;54.682;30.662;2024-02-26T08:21:05;99709.81;;;2.53;100.00
53689;BME280;39583;54.682;30.662;2024-02-26T08:23:33;99695.34;;;2.47;100.00
53689;BME280;39583;54.682;30.662;2024-02-26T08:26:00;99698.34;;;2.44;100.00
53689;BME280;39583;54.682;30.662;2024-02-26T08:28:28;99701.66;;;2.46;100.00
53689;BME280;39583;54.682;30.662;2024-02-26T08:30:55;99701.81;;;2.45;100.00
53689;BME280;39583;54.682;30.662;2024-02-26T08:33:23;99702.81;;;2.44;100.00
53689;BME280;39583;54.682;30.662;2024-02-26T08:35:51;99699.50;;;2.42;100.00
53689;BME280;39583;54.682;30.662;2024-02-26T08:38:18;99703.81;;;2.43;100.00
53689;BME280;39583;54.682;30.662;2024-02-26T08:40:46;99710.94;;;2.42;100.00
53689;BME280;39583;54.682;30.662;2024-02-26T08:43:13;99699.66;;;2.40;100.00
53689;BME280;39583;54.682;30.662;2024-02-26T08:45:41;99695.34;;;2.39;100.00
53689;BME280;39583;54.682;30.662;2024-02-26T08:48:09;99711.81;;;2.51;100.00
53689;BME280;39583;54.682;30.662;2024-02-26T08:50:36;99720.78;;;2.50;100.00
53689;BME280;39583;54.682;30.662;2024-02-26T08:53:04;99724.13;;;2.52;100.00
53689;BME280;39583;54.682;30.662;2024-02-26T08:55:33;99711.16;;;2.49;100.00
53689;BME280;39583;54.682;30.662;2024-02-26T08:58:01;99720.13;;;2.48;100.00
53689;BME280;39583;54.682;30.662;2024-02-26T09:00:28;99719.28;;;2.55;100.00
53689;BME280;39583;54.682;30.662;2024-02-26T09:02:56;99700.84;;;2.54;100.00
53689;BME280;39583;54.682;30.662;2024-02-26T09:05:25;99705.38;;;2.70;100.00
53689;BME280;39583;54.682;30.662;2024-02-26T09:07:53;99707.19;;;2.69;100.00
53689;BME280;39583;54.682;30.662;2024-02-26T09:10:21;99708.88;;;2.78;100.00
53689;BME280;39583;54.682;30.662;2024-02-26T09:12:49;99702.72;;;2.86;100.00
53689;BME280;39583;54.682;30.662;2024-02-26T09:15:17;99711.22;;;2.89;100.00
53689;BME280;39583;54.682;30.662;2024-02-26T09:17:44;99710.41;;;2.97;100.00
53689;BME280;39583;54.682;30.662;2024-02-26T09:20:13;99693.44;;;2.98;100.00
53689;BME280;39583;54.682;30.662;2024-02-26T09:22:42;99697.44;;;3.10;100.00
53689;BME280;39583;54.682;30.662;2024-02-26T09:25:10;99701.63;;;3.13;100.00
53689;BME280;39583;54.682;30.662;2024-02-26T09:27:37;99699.91;;;3.12;100.00
53689;BME280;39583;54.682;30.662;2024-02-26T09:30:10;99683.81;;;3.13;100.00
53689;BME280;39583;54.682;30.662;2024-02-26T09:32:39;99687.63;;;3.11;100.00
53689;BME280;39583;54.682;30.662;2024-02-26T09:35:07;99696.28;;;3.05;100.00
53689;BME280;39583;54.682;30.662;2024-02-26T09:37:34;99705.91;;;2.97;100.00
53689;BME280;39583;54.682;30.662;2024-02-26T09:40:04;99697.78;;;2.91;100.00
53689;BME280;39583;54.682;30.662;2024-02-26T09:42:34;99677.31;;;2.83;100.00
53689;BME280;39583;54.682;30.662;2024-02-26T09:45:05;99700.09;;;2.94;100.00
53689;BME280;39583;54.682;30.662;2024-02-26T09:47:55;99693.28;;;2.91;100.00
53689;BME280;39583;54.682;30.662;2024-02-26T09:50:24;99683.97;;;2.87;100.00
53689;BME280;39583;54.682;30.662;2024-02-26T09:52:52;99693.63;;;2.88;100.00
53689;BME280;39583;54.682;30.662;2024-02-26T09:55:20;99695.28;;;2.89;100.00
53689;BME280;39583;54.682;30.662;2024-02-26T09:57:48;99695.94;;;2.91;100.00
53689;BME280;39583;54.682;30.662;2024-02-26T10:00:21;99702.25;;;2.90;100.00
53689;BME280;39583;54.682;30.662;2024-02-26T10:02:49;99714.38;;;2.93;100.00
53689;BME280;39583;54.682;30.662;2024-02-26T10:05:19;99710.91;;;2.92;100.00
53689;BME280;39583;54.682;30.662;2024-02-26T10:07:47;99713.06;;;2.89;100.00
53689;BME280;39583;54.682;30.662;2024-02-26T10:10:15;99708.41;;;2.91;100.00
53689;BME280;39583;54.682;30.662;2024-02-26T10:12:42;99701.44;;;2.90;100.00
53689;BME280;39583;54.682;30.662;2024-02-26T10:15:10;99713.72;;;2.91;100.00
53689;BME280;39583;54.682;30.662;2024-02-26T10:17:38;99702.06;;;2.84;100.00
53689;BME280;39583;54.682;30.662;2024-02-26T10:20:15;99716.19;;;2.84;100.00
53689;BME280;39583;54.682;30.662;2024-02-26T10:22:47;99721.19;;;2.79;100.00
53689;BME280;39583;54.682;30.662;2024-02-26T10:25:15;99687.25;;;2.65;100.00
53689;BME280;39583;54.682;30.662;2024-02-26T10:27:43;99703.22;;;2.81;100.00
53689;BME280;39583;54.682;30.662;2024-02-26T10:30:20;99695.59;;;2.86;100.00
53689;BME280;39583;54.682;30.662;2024-02-26T10:32:49;99700.75;;;2.88;100.00
53689;BME280;39583;54.682;30.662;2024-02-26T10:35:18;99680.13;;;2.82;100.00
53689;BME280;39583;54.682;30.662;2024-02-26T10:37:49;99682.81;;;2.90;100.00
53689;BME280;39583;54.682;30.662;2024-02-26T10:40:17;99682.16;;;2.88;100.00
53689;BME280;39583;54.682;30.662;2024-02-26T10:42:44;99669.19;;;2.93;100.00
53689;BME280;39583;54.682;30.662;2024-02-26T10:45:15;99674.50;;;2.93;100.00
53689;BME280;39583;54.682;30.662;2024-02-26T10:47:42;99679.97;;;2.91;100.00
53689;BME280;39583;54.682;30.662;2024-02-26T10:50:12;99673.34;;;2.87;100.00
53689;BME280;39583;54.682;30.662;2024-02-26T10:52:42;99672.66;;;2.85;100.00
53689;BME280;39583;54.682;30.662;2024-02-26T10:55:17;99653.72;;;2.88;100.00
53689;BME280;39583;54.682;30.662;2024-02-26T10:57:50;99647.06;;;2.92;100.00
53689;BME280;39583;54.682;30.662;2024-02-26T11:00:19;99644.72;;;3.06;100.00
53689;BME280;39583;54.682;30.662;2024-02-26T11:02:48;99651.38;;;3.10;100.00
53689;BME280;39583;54.682;30.662;2024-02-26T11:05:17;99659.69;;;3.23;100.00
53689;BME280;39583;54.682;30.662;2024-02-26T11:07:45;99665.00;;;3.31;100.00
53689;BME280;39583;54.682;30.662;2024-02-26T11:10:15;99670.81;;;3.43;100.00
53689;BME280;39583;54.682;30.662;2024-02-26T11:12:44;99673.63;;;3.49;100.00
53689;BME280;39583;54.682;30.662;2024-02-26T11:15:13;99674.81;;;3.39;100.00
53689;BME280;39583;54.682;30.662;2024-02-26T11:17:42;99686.31;;;3.39;100.00
53689;BME280;39583;54.682;30.662;2024-02-26T11:20:11;99673.31;;;3.44;100.00
53689;BME280;39583;54.682;30.662;2024-02-26T11:22:41;99681.63;;;3.41;100.00
53689;BME280;39583;54.682;30.662;2024-02-26T11:25:08;99688.63;;;3.34;100.00
53689;BME280;39583;54.682;30.662;2024-02-26T11:27:53;99699.59;;;3.23;100.00
53689;BME280;39583;54.682;30.662;2024-02-26T11:30:25;99697.78;;;3.15;100.00
53689;BME280;39583;54.682;30.662;2024-02-26T11:32:53;99701.63;;;3.13;100.00
53689;BME280;39583;54.682;30.662;2024-02-26T11:35:22;99696.13;;;3.06;100.00
53689;BME280;39583;54.682;30.662;2024-02-26T11:37:56;99702.09;;;3.00;100.00
53689;BME280;39583;54.682;30.662;2024-02-26T11:40:25;99698.25;;;2.94;100.00
53689;BME280;39583;54.682;30.662;2024-02-26T11:42:54;99698.78;;;2.90;100.00
53689;BME280;39583;54.682;30.662;2024-02-26T11:48:13;99701.59;;;2.88;100.00
53689;BME280;39583;54.682;30.662;2024-02-26T11:50:42;99706.41;;;2.93;100.00
53689;BME280;39583;54.682;30.662;2024-02-26T11:53:20;99703.91;;;2.91;100.00
53689;BME280;39583;54.682;30.662;2024-02-26T11:56:11;99702.91;;;2.92;100.00
53689;BME280;39583;54.682;30.662;2024-02-26T11:58:39;99694.91;;;2.84;100.00
53689;BME280;39583;54.682;30.662;2024-02-26T12:04:23;99710.03;;;2.84;100.00
53689;BME280;39583;54.682;30.662;2024-02-26T12:06:57;99705.25;;;2.87;100.00
53689;BME280;39583;54.682;30.662;2024-02-26T12:09:35;99695.25;;;2.81;100.00
53689;BME280;39583;54.682;30.662;2024-02-26T12:12:05;99707.38;;;2.84;99.95
53689;BME280;39583;54.682;30.662;2024-02-26T12:14:41;99707.88;;;2.79;99.76
53689;BME280;39583;54.682;30.662;2024-02-26T12:17:22;99716.50;;;2.73;98.92
53689;BME280;39583;54.682;30.662;2024-02-26T12:19:51;99714.00;;;2.63;98.57
53689;BME280;39583;54.682;30.662;2024-02-26T12:22:20;99720.13;;;2.56;98.49
53689;BME280;39583;54.682;30.662;2024-02-26T12:24:58;99718.78;;;2.52;98.69
53689;BME280;39583;54.682;30.662;2024-02-26T12:27:25;99719.78;;;2.51;98.69
53689;BME280;39583;54.682;30.662;2024-02-26T12:29:53;99703.47;;;2.46;98.75
53689;BME280;39583;54.682;30.662;2024-02-26T12:32:21;99689.22;;;2.55;98.77
53689;BME280;39583;54.682;30.662;2024-02-26T12:34:49;99689.09;;;2.64;98.55
53689;BME280;39583;54.682;30.662;2024-02-26T12:37:17;99705.38;;;2.86;98.04
53689;BME280;39583;54.682;30.662;2024-02-26T12:39:45;99669.34;;;2.75;98.15
53689;BME280;39583;54.682;30.662;2024-02-26T12:42:14;99705.09;;;3.05;97.37
53689;BME280;39583;54.682;30.662;2024-02-26T12:44:41;99659.69;;;2.74;96.78
53689;BME280;39583;54.682;30.662;2024-02-26T12:47:09;99711.75;;;3.01;96.12
53689;BME280;39583;54.682;30.662;2024-02-26T12:49:37;99717.03;;;2.93;95.68
53689;BME280;39583;54.682;30.662;2024-02-26T12:52:05;99648.00;;;2.43;95.69
53689;BME280;39583;54.682;30.662;2024-02-26T12:54:33;99706.72;;;2.82;96.27
53689;BME280;39583;54.682;30.662;2024-02-26T12:57:08;99706.91;;;2.80;95.79
53689;BME280;39583;54.682;30.662;2024-02-26T12:59:36;99699.25;;;2.77;95.37
53689;BME280;39583;54.682;30.662;2024-02-26T13:02:04;99699.41;;;2.76;95.65
53689;BME280;39583;54.682;30.662;2024-02-26T13:04:34;99694.91;;;2.68;95.57
53689;BME280;39583;54.682;30.662;2024-02-26T13:07:06;99702.75;;;2.78;95.46
53689;BME280;39583;54.682;30.662;2024-02-26T13:09:34;99705.22;;;2.79;95.58
53689;BME280;39583;54.682;30.662;2024-02-26T13:12:07;99708.22;;;2.76;95.01
53689;BME280;39583;54.682;30.662;2024-02-26T13:14:35;99715.19;;;2.77;94.92
53689;BME280;39583;54.682;30.662;2024-02-26T13:17:03;99725.66;;;2.79;95.00
53689;BME280;39583;54.682;30.662;2024-02-26T13:19:32;99724.50;;;2.81;95.17
53689;BME280;39583;54.682;30.662;2024-02-26T13:22:06;99723.50;;;2.82;94.90
53689;BME280;39583;54.682;30.662;2024-02-26T13:24:35;99726.66;;;2.78;94.88
53689;BME280;39583;54.682;30.662;2024-02-26T13:27:04;99731.16;;;2.77;94.71
53689;BME280;39583;54.682;30.662;2024-02-26T13:29:34;99741.63;;;2.79;94.75
53689;BME280;39583;54.682;30.662;2024-02-26T13:32:03;99740.47;;;2.81;95.12
53689;BME280;39583;54.682;30.662;2024-02-26T13:34:31;99741.66;;;2.87;95.35
53689;BME280;39583;54.682;30.662;2024-02-26T13:37:00;99741.50;;;2.88;94.96
53689;BME280;39583;54.682;30.662;2024-02-26T13:39:28;99728.03;;;2.90;95.07
53689;BME280;39583;54.682;30.662;2024-02-26T13:41:56;99728.19;;;2.96;94.94
53689;BME280;39583;54.682;30.662;2024-02-26T13:44:24;99719.22;;;2.97;94.69
53689;BME280;39583;54.682;30.662;2024-02-26T13:46:52;99718.53;;;2.95;94.55
53689;BME280;39583;54.682;30.662;2024-02-26T13:49:19;99727.19;;;2.97;94.60
53689;BME280;39583;54.682;30.662;2024-02-26T13:51:47;99722.88;;;2.96;94.32
53689;BME280;39583;54.682;30.662;2024-02-26T13:54:14;99721.38;;;2.94;94.43
53689;BME280;39583;54.682;30.662;2024-02-26T13:56:42;99719.38;;;2.96;94.58
53689;BME280;39583;54.682;30.662;2024-02-26T13:59:14;99727.34;;;2.96;94.65
53689;BME280;39583;54.682;30.662;2024-02-26T14:01:42;99721.03;;;2.97;94.73
53689;BME280;39583;54.682;30.662;2024-02-26T14:04:10;99720.19;;;2.96;94.68
53689;BME280;39583;54.682;30.662;2024-02-26T14:06:39;99723.88;;;2.95;94.55
53689;BME280;39583;54.682;30.662;2024-02-26T14:09:06;99723.69;;;2.97;94.92
53689;BME280;39583;54.682;30.662;2024-02-26T14:11:34;99720.03;;;2.98;95.11
53689;BME280;39583;54.682;30.662;2024-02-26T14:14:02;99722.69;;;2.98;94.79
53689;BME280;39583;54.682;30.662;2024-02-26T14:16:29;99722.88;;;2.96;95.00
53689;BME280;39583;54.682;30.662;2024-02-26T14:18:58;99724.69;;;2.96;94.78
53689;BME280;39583;54.682;30.662;2024-02-26T14:21:26;99714.22;;;2.94;95.02
53689;BME280;39583;54.682;30.662;2024-02-26T14:23:55;99722.19;;;2.94;94.97
53689;BME280;39583;54.682;30.662;2024-02-26T14:26:23;99726.03;;;2.92;94.57
53689;BME280;39583;54.682;30.662;2024-02-26T14:28:51;99731.50;;;2.90;94.51
53689;BME280;39583;54.682;30.662;2024-02-26T14:31:19;99724.19;;;2.92;94.87
53689;BME280;39583;54.682;30.662;2024-02-26T14:33:46;99720.38;;;2.95;94.90
53689;BME280;39583;54.682;30.662;2024-02-26T14:36:18;99721.19;;;2.95;94.65
53689;BME280;39583;54.682;30.662;2024-02-26T14:38:46;99725.03;;;2.93;94.47
53689;BME280;39583;54.682;30.662;2024-02-26T14:41:14;99739.00;;;2.95;94.37
53689;BME280;39583;54.682;30.662;2024-02-26T14:43:42;99703.75;;;2.77;94.19
53689;BME280;39583;54.682;30.662;2024-02-26T14:46:13;99734.84;;;2.92;94.14
53689;BME280;39583;54.682;30.662;2024-02-26T14:48:41;99737.66;;;2.91;93.95
53689;BME280;39583;54.682;30.662;2024-02-26T14:51:08;99730.50;;;2.91;93.94
53689;BME280;39583;54.682;30.662;2024-02-26T14:53:36;99727.03;;;2.91;93.60
53689;BME280;39583;54.682;30.662;2024-02-26T14:56:04;99724.53;;;2.89;93.74
53689;BME280;39583;54.682;30.662;2024-02-26T14:58:31;99721.03;;;2.89;93.52
53689;BME280;39583;54.682;30.662;2024-02-26T15:00:59;99727.84;;;2.91;93.36
53689;BME280;39583;54.682;30.662;2024-02-26T15:03:26;99732.50;;;2.89;93.68
53689;BME280;39583;54.682;30.662;2024-02-26T15:05:54;99737.50;;;2.92;93.12
53689;BME280;39583;54.682;30.662;2024-02-26T15:08:22;99739.16;;;2.93;93.22
53689;BME280;39583;54.682;30.662;2024-02-26T15:10:49;99733.84;;;2.93;93.02
53689;BME280;39583;54.682;30.662;2024-02-26T15:13:18;99736.50;;;2.93;92.77
53689;BME280;39583;54.682;30.662;2024-02-26T15:15:46;99743.66;;;2.93;92.80
53689;BME280;39583;54.682;30.662;2024-02-26T15:18:14;99748.63;;;2.96;92.68
53689;BME280;39583;54.682;30.662;2024-02-26T15:20:44;99744.13;;;2.96;92.51
53689;BME280;39583;54.682;30.662;2024-02-26T15:23:12;99742.47;;;2.95;92.34
53689;BME280;39583;54.682;30.662;2024-02-26T15:25:40;99752.78;;;2.99;92.30
53689;BME280;39583;54.682;30.662;2024-02-26T15:28:09;99742.66;;;2.94;92.44
53689;BME280;39583;54.682;30.662;2024-02-26T15:30:42;99754.78;;;2.96;92.16
53689;BME280;39583;54.682;30.662;2024-02-26T15:33:09;99751.28;;;2.96;92.18
53689;BME280;39583;54.682;30.662;2024-02-26T15:35:38;99759.28;;;2.96;92.01
53689;BME280;39583;54.682;30.662;2024-02-26T15:38:05;99758.44;;;2.95;92.06
53689;BME280;39583;54.682;30.662;2024-02-26T15:40:33;99771.06;;;2.93;91.88
53689;BME280;39583;54.682;30.662;2024-02-26T15:43:00;99761.44;;;2.92;91.93
53689;BME280;39583;54.682;30.662;2024-02-26T15:45:28;99769.41;;;2.92;91.62
53689;BME280;39583;54.682;30.662;2024-02-26T15:48:00;99772.06;;;2.92;91.51
53689;BME280;39583;54.682;30.662;2024-02-26T15:50:27;99771.25;;;2.92;91.52
53689;BME280;39583;54.682;30.662;2024-02-26T15:52:55;99781.06;;;2.91;91.59
53689;BME280;39583;54.682;30.662;2024-02-26T15:55:23;99784.72;;;2.90;91.59
53689;BME280;39583;54.682;30.662;2024-02-26T15:57:50;99781.06;;;2.91;91.54
53689;BME280;39583;54.682;30.662;2024-02-26T16:00:18;99776.91;;;2.89;91.59
53689;BME280;39583;54.682;30.662;2024-02-26T16:02:47;99773.53;;;2.79;91.50
53689;BME280;39583;54.682;30.662;2024-02-26T16:05:16;99790.34;;;2.87;91.53
53689;BME280;39583;54.682;30.662;2024-02-26T16:07:46;99800.00;;;2.88;91.85
53689;BME280;39583;54.682;30.662;2024-02-26T16:10:17;99786.34;;;2.83;91.80
53689;BME280;39583;54.682;30.662;2024-02-26T16:12:49;99795.97;;;2.84;91.46
53689;BME280;39583;54.682;30.662;2024-02-26T16:15:17;99794.16;;;2.85;91.78
53689;BME280;39583;54.682;30.662;2024-02-26T16:17:47;99797.81;;;2.84;91.51
53689;BME280;39583;54.682;30.662;2024-02-26T16:20:17;99805.44;;;2.79;91.72
53689;BME280;39583;54.682;30.662;2024-02-26T16:22:46;99804.63;;;2.78;91.75
53689;BME280;39583;54.682;30.662;2024-02-26T16:25:14;99806.59;;;2.76;91.98
53689;BME280;39583;54.682;30.662;2024-02-26T16:27:42;99802.75;;;2.71;91.95
53689;BME280;39583;54.682;30.662;2024-02-26T16:30:10;99811.75;;;2.78;91.97
53689;BME280;39583;54.682;30.662;2024-02-26T16:32:40;99809.94;;;2.78;92.26
53689;BME280;39583;54.682;30.662;2024-02-26T16:35:08;99813.41;;;2.79;91.97
53689;BME280;39583;54.682;30.662;2024-02-26T16:37:39;99815.91;;;2.80;92.07
53689;BME280;39583;54.682;30.662;2024-02-26T16:40:07;99816.59;;;2.82;91.82
53689;BME280;39583;54.682;30.662;2024-02-26T16:42:37;99825.22;;;2.84;91.79
53689;BME280;39583;54.682;30.662;2024-02-26T16:45:05;99827.88;;;2.84;91.57
53689;BME280;39583;54.682;30.662;2024-02-26T16:47:34;99819.25;;;2.82;91.44
53689;BME280;39583;54.682;30.662;2024-02-26T16:50:05;99820.25;;;2.81;91.44
53689;BME280;39583;54.682;30.662;2024-02-26T16:52:33;99821.22;;;2.80;91.32
53689;BME280;39583;54.682;30.662;2024-02-26T16:55:01;99830.03;;;2.81;91.35
53689;BME280;39583;54.682;30.662;2024-02-26T16:57:32;99802.75;;;2.71;91.04
53689;BME280;39583;54.682;30.662;2024-02-26T17:00:00;99817.91;;;2.78;91.15
53689;BME280;39583;54.682;30.662;2024-02-26T17:02:27;99820.56;;;2.78;91.25
53689;BME280;39583;54.682;30.662;2024-02-26T17:04:55;99831.22;;;2.78;91.21
53689;BME280;39583;54.682;30.662;2024-02-26T17:07:22;99836.19;;;2.81;91.00
53689;BME280;39583;54.682;30.662;2024-02-26T17:09:52;99835.69;;;2.78;90.87
53689;BME280;39583;54.682;30.662;2024-02-26T17:12:19;99840.00;;;2.79;90.91
53689;BME280;39583;54.682;30.662;2024-02-26T17:14:49;99843.84;;;2.76;90.95
53689;BME280;39583;54.682;30.662;2024-02-26T17:17:18;99834.81;;;2.69;91.11
53689;BME280;39583;54.682;30.662;2024-02-26T17:19:46;99845.97;;;2.73;90.94
53689;BME280;39583;54.682;30.662;2024-02-26T17:22:13;99857.59;;;2.72;91.04
53689;BME280;39583;54.682;30.662;2024-02-26T17:24:41;99859.59;;;2.70;91.14
53689;BME280;39583;54.682;30.662;2024-02-26T17:27:08;99867.06;;;2.66;91.10
53689;BME280;39583;54.682;30.662;2024-02-26T17:29:37;99866.38;;;2.64;91.57
53689;BME280;39583;54.682;30.662;2024-02-26T17:32:05;99861.22;;;2.62;91.73
53689;BME280;39583;54.682;30.662;2024-02-26T17:34:38;99864.03;;;2.61;91.88
53689;BME280;39583;54.682;30.662;2024-02-26T17:37:06;99860.69;;;2.59;91.58
53689;BME280;39583;54.682;30.662;2024-02-26T17:39:34;99865.34;;;2.57;91.92
53689;BME280;39583;54.682;30.662;2024-02-26T17:42:01;99856.03;;;2.53;91.89
53689;BME280;39583;54.682;30.662;2024-02-26T17:44:38;99868.00;;;2.57;91.89
53689;BME280;39583;54.682;30.662;2024-02-26T17:47:07;99873.16;;;2.58;91.89
53689;BME280;39583;54.682;30.662;2024-02-26T17:49:35;99875.81;;;2.58;92.12
53689;BME280;39583;54.682;30.662;2024-02-26T17:52:03;99881.97;;;2.59;92.23
53689;BME280;39583;54.682;30.662;2024-02-26T17:54:32;99876.50;;;2.60;92.37
53689;BME280;39583;54.682;30.662;2024-02-26T17:57:00;99880.50;;;2.64;92.29
53689;BME280;39583;54.682;30.662;2024-02-26T17:59:29;99878.50;;;2.66;92.32
53689;BME280;39583;54.682;30.662;2024-02-26T18:01:56;99880.19;;;2.67;92.14
53689;BME280;39583;54.682;30.662;2024-02-26T18:04:24;99874.53;;;2.71;92.20
53689;BME280;39583;54.682;30.662;2024-02-26T18:06:52;99881.34;;;2.72;92.25
53689;BME280;39583;54.682;30.662;2024-02-26T18:09:20;99877.03;;;2.72;91.97
53689;BME280;39583;54.682;30.662;2024-02-26T18:11:47;99877.03;;;2.72;92.10
53689;BME280;39583;54.682;30.662;2024-02-26T18:14:15;99892.97;;;2.72;92.07
53689;BME280;39583;54.682;30.662;2024-02-26T18:16:43;99887.66;;;2.72;91.98
53689;BME280;39583;54.682;30.662;2024-02-26T18:19:11;99896.63;;;2.71;92.10
53689;BME280;39583;54.682;30.662;2024-02-26T18:21:39;99893.16;;;2.71;92.39
53689;BME280;39583;54.682;30.662;2024-02-26T18:24:07;99894.81;;;2.72;92.20
53689;BME280;39583;54.682;30.662;2024-02-26T18:26:36;99898.63;;;2.69;92.32
53689;BME280;39583;54.682;30.662;2024-02-26T18:29:03;99901.63;;;2.66;92.20
53689;BME280;39583;54.682;30.662;2024-02-26T18:31:34;99904.28;;;2.66;92.69
53689;BME280;39583;54.682;30.662;2024-02-26T18:34:04;99903.44;;;2.65;92.71
53689;BME280;39583;54.682;30.662;2024-02-26T18:36:32;99908.44;;;2.69;92.79
53689;BME280;39583;54.682;30.662;2024-02-26T18:39:00;99906.78;;;2.67;92.96
53689;BME280;39583;54.682;30.662;2024-02-26T18:41:28;99909.59;;;2.66;92.65
53689;BME280;39583;54.682;30.662;2024-02-26T18:43:55;99917.56;;;2.66;93.15
53689;BME280;39583;54.682;30.662;2024-02-26T18:46:23;99921.06;;;2.66;93.23
53689;BME280;39583;54.682;30.662;2024-02-26T18:48:50;99920.06;;;2.67;93.13
53689;BME280;39583;54.682;30.662;2024-02-26T18:51:20;99918.41;;;2.66;92.86
53689;BME280;39583;54.682;30.662;2024-02-26T18:53:48;99911.56;;;2.64;92.82
